sensor_id;sensor_type;location;lat;lon;timestamp;temperature;humidity
69546;SHT31;56766;52.260;20.746;2022-09-27T00:01:23;12.28;82.19
69546;SHT31;56766;52.260;20.746;2022-09-27T00:03:54;12.29;82.20
69546;SHT31;56766;52.260;20.746;2022-09-27T00:06:26;12.32;82.24
69546;SHT31;56766;52.260;20.746;2022-09-27T00:08:55;12.33;82.27
69546;SHT31;56766;52.260;20.746;2022-09-27T00:11:32;12.33;82.27
69546;SHT31;56766;52.260;20.746;2022-09-27T00:14:07;12.33;82.36
69546;SHT31;56766;52.260;20.746;2022-09-27T00:16:38;12.36;82.43
69546;SHT31;56766;52.260;20.746;2022-09-27T00:19:13;12.37;82.23
69546;SHT31;56766;52.260;20.746;2022-09-27T00:21:44;12.31;82.09
69546;SHT31;56766;52.260;20.746;2022-09-27T00:24:13;12.29;82.72
69546;SHT31;56766;52.260;20.746;2022-09-27T00:26:48;12.33;82.72
69546;SHT31;56766;52.260;20.746;2022-09-27T00:29:17;12.34;82.76
69546;SHT31;56766;52.260;20.746;2022-09-27T00:31:45;12.35;82.72
69546;SHT31;56766;52.260;20.746;2022-09-27T00:34:19;12.37;82.52
69546;SHT31;56766;52.260;20.746;2022-09-27T00:36:49;12.31;82.41
69546;SHT31;56766;52.260;20.746;2022-09-27T00:39:18;12.23;82.57
69546;SHT31;56766;52.260;20.746;2022-09-27T00:41:45;12.22;82.79
69546;SHT31;56766;52.260;20.746;2022-09-27T00:47:22;12.27;82.34
69546;SHT31;56766;52.260;20.746;2022-09-27T00:50:08;12.22;82.34
69546;SHT31;56766;52.260;20.746;2022-09-27T00:55:59;12.23;82.14
69546;SHT31;56766;52.260;20.746;2022-09-27T00:58:38;12.21;82.07
69546;SHT31;56766;52.260;20.746;2022-09-27T01:01:24;12.16;82.00
69546;SHT31;56766;52.260;20.746;2022-09-27T01:06:35;11.99;81.80
69546;SHT31;56766;52.260;20.746;2022-09-27T01:09:07;11.88;81.73
69546;SHT31;56766;52.260;20.746;2022-09-27T01:11:43;11.75;81.64
69546;SHT31;56766;52.260;20.746;2022-09-27T01:33:43;11.21;82.19
69546;SHT31;56766;52.260;20.746;2022-09-27T01:36:42;11.17;82.21
69546;SHT31;56766;52.260;20.746;2022-09-27T01:40:01;11.20;82.57
69546;SHT31;56766;52.260;20.746;2022-09-27T01:43:05;11.21;82.40
69546;SHT31;56766;52.260;20.746;2022-09-27T01:45:47;11.19;82.41
69546;SHT31;56766;52.260;20.746;2022-09-27T01:48:22;11.20;82.35
69546;SHT31;56766;52.260;20.746;2022-09-27T01:51:10;11.22;82.44
69546;SHT31;56766;52.260;20.746;2022-09-27T01:53:46;11.21;82.50
69546;SHT31;56766;52.260;20.746;2022-09-27T01:56:53;11.19;82.36
69546;SHT31;56766;52.260;20.746;2022-09-27T01:59:35;11.19;82.55
69546;SHT31;56766;52.260;20.746;2022-09-27T02:02:09;11.22;82.66
69546;SHT31;56766;52.260;20.746;2022-09-27T02:04:41;11.23;82.92
69546;SHT31;56766;52.260;20.746;2022-09-27T02:07:25;11.20;82.80
69546;SHT31;56766;52.260;20.746;2022-09-27T02:10:30;11.18;82.89
69546;SHT31;56766;52.260;20.746;2022-09-27T02:16:22;11.27;83.05
69546;SHT31;56766;52.260;20.746;2022-09-27T02:19:11;11.31;83.20
69546;SHT31;56766;52.260;20.746;2022-09-27T02:24:55;11.38;82.80
69546;SHT31;56766;52.260;20.746;2022-09-27T02:27:28;11.40;82.78
69546;SHT31;56766;52.260;20.746;2022-09-27T02:30:04;11.40;82.67
69546;SHT31;56766;52.260;20.746;2022-09-27T02:32:47;11.37;82.68
69546;SHT31;56766;52.260;20.746;2022-09-27T02:35:26;11.35;83.11
69546;SHT31;56766;52.260;20.746;2022-09-27T02:37:57;11.30;83.16
69546;SHT31;56766;52.260;20.746;2022-09-27T02:40:30;11.31;83.37
69546;SHT31;56766;52.260;20.746;2022-09-27T02:43:03;11.32;83.26
69546;SHT31;56766;52.260;20.746;2022-09-27T02:45:57;11.37;83.17
69546;SHT31;56766;52.260;20.746;2022-09-27T02:51:50;11.52;83.20
69546;SHT31;56766;52.260;20.746;2022-09-27T03:04:14;11.75;82.94
69546;SHT31;56766;52.260;20.746;2022-09-27T03:06:50;11.80;83.09
69546;SHT31;56766;52.260;20.746;2022-09-27T03:09:20;11.87;83.00
69546;SHT31;56766;52.260;20.746;2022-09-27T03:11:48;11.94;83.06
69546;SHT31;56766;52.260;20.746;2022-09-27T03:14:17;11.97;83.03
69546;SHT31;56766;52.260;20.746;2022-09-27T03:16:43;11.98;83.22
69546;SHT31;56766;52.260;20.746;2022-09-27T03:19:11;11.99;83.27
69546;SHT31;56766;52.260;20.746;2022-09-27T03:21:38;12.02;83.24
69546;SHT31;56766;52.260;20.746;2022-09-27T03:24:05;12.02;83.27
69546;SHT31;56766;52.260;20.746;2022-09-27T03:26:32;12.03;83.16
69546;SHT31;56766;52.260;20.746;2022-09-27T03:28:58;12.00;83.21
69546;SHT31;56766;52.260;20.746;2022-09-27T03:31:25;12.02;83.32
69546;SHT31;56766;52.260;20.746;2022-09-27T03:33:53;12.03;83.30
69546;SHT31;56766;52.260;20.746;2022-09-27T03:36:19;12.02;83.51
69546;SHT31;56766;52.260;20.746;2022-09-27T03:38:47;12.01;83.61
69546;SHT31;56766;52.260;20.746;2022-09-27T03:41:13;12.01;83.37
69546;SHT31;56766;52.260;20.746;2022-09-27T03:43:40;11.98;83.38
69546;SHT31;56766;52.260;20.746;2022-09-27T03:46:08;12.00;83.33
69546;SHT31;56766;52.260;20.746;2022-09-27T03:48:35;12.02;83.28
69546;SHT31;56766;52.260;20.746;2022-09-27T03:51:01;12.04;83.29
69546;SHT31;56766;52.260;20.746;2022-09-27T03:53:29;12.05;83.24
69546;SHT31;56766;52.260;20.746;2022-09-27T03:55:57;12.05;83.29
69546;SHT31;56766;52.260;20.746;2022-09-27T03:58:24;12.07;83.28
69546;SHT31;56766;52.260;20.746;2022-09-27T04:00:51;12.06;83.24
69546;SHT31;56766;52.260;20.746;2022-09-27T04:03:17;12.04;83.24
69546;SHT31;56766;52.260;20.746;2022-09-27T04:05:45;12.02;83.38
69546;SHT31;56766;52.260;20.746;2022-09-27T04:08:12;12.00;83.71
69546;SHT31;56766;52.260;20.746;2022-09-27T04:10:41;12.02;83.80
69546;SHT31;56766;52.260;20.746;2022-09-27T04:13:09;12.00;83.80
69546;SHT31;56766;52.260;20.746;2022-09-27T04:15:36;11.97;83.85
69546;SHT31;56766;52.260;20.746;2022-09-27T04:18:05;11.94;83.93
69546;SHT31;56766;52.260;20.746;2022-09-27T04:20:32;11.92;84.00
69546;SHT31;56766;52.260;20.746;2022-09-27T04:23:01;11.95;83.93
69546;SHT31;56766;52.260;20.746;2022-09-27T04:25:28;11.97;83.70
69546;SHT31;56766;52.260;20.746;2022-09-27T04:27:55;12.01;83.70
69546;SHT31;56766;52.260;20.746;2022-09-27T04:30:22;12.02;83.62
69546;SHT31;56766;52.260;20.746;2022-09-27T04:32:48;12.03;83.61
69546;SHT31;56766;52.260;20.746;2022-09-27T04:35:15;12.03;83.66
69546;SHT31;56766;52.260;20.746;2022-09-27T04:38:00;12.07;83.80
69546;SHT31;56766;52.260;20.746;2022-09-27T04:40:28;12.12;83.71
69546;SHT31;56766;52.260;20.746;2022-09-27T04:42:55;12.15;83.55
69546;SHT31;56766;52.260;20.746;2022-09-27T04:45:22;12.18;83.49
69546;SHT31;56766;52.260;20.746;2022-09-27T04:47:49;12.20;83.56
69546;SHT31;56766;52.260;20.746;2022-09-27T04:50:17;12.23;83.62
69546;SHT31;56766;52.260;20.746;2022-09-27T04:52:52;12.26;83.54
69546;SHT31;56766;52.260;20.746;2022-09-27T04:55:21;12.27;83.50
69546;SHT31;56766;52.260;20.746;2022-09-27T04:57:48;12.24;83.50
69546;SHT31;56766;52.260;20.746;2022-09-27T05:00:16;12.23;83.57
69546;SHT31;56766;52.260;20.746;2022-09-27T05:02:43;12.21;83.65
69546;SHT31;56766;52.260;20.746;2022-09-27T05:05:11;12.19;83.77
69546;SHT31;56766;52.260;20.746;2022-09-27T05:07:40;12.19;83.84
69546;SHT31;56766;52.260;20.746;2022-09-27T05:10:09;12.20;83.81
69546;SHT31;56766;52.260;20.746;2022-09-27T05:12:35;12.24;83.84
69546;SHT31;56766;52.260;20.746;2022-09-27T05:15:03;12.27;83.89
69546;SHT31;56766;52.260;20.746;2022-09-27T05:17:30;12.28;83.91
69546;SHT31;56766;52.260;20.746;2022-09-27T05:19:57;12.28;84.00
69546;SHT31;56766;52.260;20.746;2022-09-27T05:22:25;12.27;84.04
69546;SHT31;56766;52.260;20.746;2022-09-27T05:24:52;12.27;84.19
69546;SHT31;56766;52.260;20.746;2022-09-27T05:27:18;12.27;84.20
69546;SHT31;56766;52.260;20.746;2022-09-27T05:29:46;12.32;84.14
69546;SHT31;56766;52.260;20.746;2022-09-27T05:32:14;12.37;84.16
69546;SHT31;56766;52.260;20.746;2022-09-27T05:34:41;12.42;84.19
69546;SHT31;56766;52.260;20.746;2022-09-27T05:37:08;12.43;84.17
69546;SHT31;56766;52.260;20.746;2022-09-27T05:39:35;12.42;84.25
69546;SHT31;56766;52.260;20.746;2022-09-27T05:42:02;12.48;84.23
69546;SHT31;56766;52.260;20.746;2022-09-27T05:44:30;12.54;84.18
69546;SHT31;56766;52.260;20.746;2022-09-27T05:47:02;12.62;84.07
69546;SHT31;56766;52.260;20.746;2022-09-27T05:49:30;12.68;84.00
69546;SHT31;56766;52.260;20.746;2022-09-27T05:52:00;12.69;84.02
69546;SHT31;56766;52.260;20.746;2022-09-27T05:54:29;12.66;84.14
69546;SHT31;56766;52.260;20.746;2022-09-27T05:56:57;12.60;84.29
69546;SHT31;56766;52.260;20.746;2022-09-27T05:59:25;12.56;84.40
69546;SHT31;56766;52.260;20.746;2022-09-27T06:01:53;12.58;84.41
69546;SHT31;56766;52.260;20.746;2022-09-27T06:04:20;12.59;84.45
69546;SHT31;56766;52.260;20.746;2022-09-27T06:06:47;12.63;84.43
69546;SHT31;56766;52.260;20.746;2022-09-27T06:09:15;12.65;84.40
69546;SHT31;56766;52.260;20.746;2022-09-27T06:11:43;12.64;84.40
69546;SHT31;56766;52.260;20.746;2022-09-27T06:14:12;12.66;84.44
69546;SHT31;56766;52.260;20.746;2022-09-27T06:16:39;12.65;84.48
69546;SHT31;56766;52.260;20.746;2022-09-27T06:19:06;12.65;84.61
69546;SHT31;56766;52.260;20.746;2022-09-27T06:21:33;12.68;84.57
69546;SHT31;56766;52.260;20.746;2022-09-27T06:23:59;12.72;84.47
69546;SHT31;56766;52.260;20.746;2022-09-27T06:26:26;12.69;84.59
69546;SHT31;56766;52.260;20.746;2022-09-27T06:28:54;12.69;84.69
69546;SHT31;56766;52.260;20.746;2022-09-27T06:31:22;12.76;84.76
69546;SHT31;56766;52.260;20.746;2022-09-27T06:33:49;12.85;84.68
69546;SHT31;56766;52.260;20.746;2022-09-27T06:36:16;12.88;84.49
69546;SHT31;56766;52.260;20.746;2022-09-27T06:38:43;12.94;84.57
69546;SHT31;56766;52.260;20.746;2022-09-27T06:41:12;13.01;84.40
69546;SHT31;56766;52.260;20.746;2022-09-27T06:43:40;13.02;84.33
69546;SHT31;56766;52.260;20.746;2022-09-27T06:46:07;12.98;84.41
69546;SHT31;56766;52.260;20.746;2022-09-27T06:48:34;12.96;84.63
69546;SHT31;56766;52.260;20.746;2022-09-27T06:51:04;12.95;84.71
69546;SHT31;56766;52.260;20.746;2022-09-27T06:53:31;12.99;84.70
69546;SHT31;56766;52.260;20.746;2022-09-27T06:55:59;13.06;84.70
69546;SHT31;56766;52.260;20.746;2022-09-27T06:58:29;13.05;84.71
69546;SHT31;56766;52.260;20.746;2022-09-27T07:01:15;13.08;84.78
69546;SHT31;56766;52.260;20.746;2022-09-27T07:03:42;13.12;84.79
69546;SHT31;56766;52.260;20.746;2022-09-27T07:06:19;13.20;84.78
69546;SHT31;56766;52.260;20.746;2022-09-27T07:08:51;13.30;84.55
69546;SHT31;56766;52.260;20.746;2022-09-27T07:11:19;13.39;84.47
69546;SHT31;56766;52.260;20.746;2022-09-27T07:13:49;13.37;84.43
69546;SHT31;56766;52.260;20.746;2022-09-27T07:16:17;13.37;84.50
69546;SHT31;56766;52.260;20.746;2022-09-27T07:18:47;13.40;84.59
69546;SHT31;56766;52.260;20.746;2022-09-27T07:21:15;13.43;84.53
69546;SHT31;56766;52.260;20.746;2022-09-27T07:23:41;13.44;84.54
69546;SHT31;56766;52.260;20.746;2022-09-27T07:26:09;13.51;84.43
69546;SHT31;56766;52.260;20.746;2022-09-27T07:28:37;13.55;84.29
69546;SHT31;56766;52.260;20.746;2022-09-27T07:31:07;13.59;84.20
69546;SHT31;56766;52.260;20.746;2022-09-27T07:33:34;13.62;84.14
69546;SHT31;56766;52.260;20.746;2022-09-27T07:36:06;13.65;84.13
69546;SHT31;56766;52.260;20.746;2022-09-27T07:38:34;13.70;83.97
69546;SHT31;56766;52.260;20.746;2022-09-27T07:41:06;13.69;83.76
69546;SHT31;56766;52.260;20.746;2022-09-27T07:43:35;13.69;83.80
69546;SHT31;56766;52.260;20.746;2022-09-27T07:46:02;13.68;83.75
69546;SHT31;56766;52.260;20.746;2022-09-27T07:48:29;13.64;83.79
69546;SHT31;56766;52.260;20.746;2022-09-27T07:50:56;13.59;83.83
69546;SHT31;56766;52.260;20.746;2022-09-27T07:53:22;13.54;83.85
69546;SHT31;56766;52.260;20.746;2022-09-27T07:55:50;13.49;83.88
69546;SHT31;56766;52.260;20.746;2022-09-27T07:58:19;13.45;83.76
69546;SHT31;56766;52.260;20.746;2022-09-27T08:00:47;13.45;83.70
69546;SHT31;56766;52.260;20.746;2022-09-27T08:03:16;13.45;83.56
69546;SHT31;56766;52.260;20.746;2022-09-27T08:05:45;13.43;83.57
69546;SHT31;56766;52.260;20.746;2022-09-27T08:08:16;13.42;83.68
69546;SHT31;56766;52.260;20.746;2022-09-27T08:10:43;13.48;83.68
69546;SHT31;56766;52.260;20.746;2022-09-27T08:13:14;13.52;83.60
69546;SHT31;56766;52.260;20.746;2022-09-27T08:15:45;13.59;83.54
69546;SHT31;56766;52.260;20.746;2022-09-27T08:18:12;13.65;83.44
69546;SHT31;56766;52.260;20.746;2022-09-27T08:20:39;13.71;83.34
69546;SHT31;56766;52.260;20.746;2022-09-27T08:23:06;13.73;83.23
69546;SHT31;56766;52.260;20.746;2022-09-27T08:25:32;13.76;83.20
69546;SHT31;56766;52.260;20.746;2022-09-27T08:28:01;13.81;83.21
69546;SHT31;56766;52.260;20.746;2022-09-27T08:30:30;13.86;83.21
69546;SHT31;56766;52.260;20.746;2022-09-27T08:32:59;13.87;83.09
69546;SHT31;56766;52.260;20.746;2022-09-27T08:35:30;13.91;83.09
69546;SHT31;56766;52.260;20.746;2022-09-27T08:38:00;13.95;83.00
69546;SHT31;56766;52.260;20.746;2022-09-27T08:40:52;13.98;82.84
69546;SHT31;56766;52.260;20.746;2022-09-27T08:43:51;14.02;82.77
69546;SHT31;56766;52.260;20.746;2022-09-27T08:46:40;14.03;82.75
69546;SHT31;56766;52.260;20.746;2022-09-27T08:49:32;14.08;82.85
69546;SHT31;56766;52.260;20.746;2022-09-27T08:52:32;14.15;82.51
69546;SHT31;56766;52.260;20.746;2022-09-27T08:58:26;14.26;82.31
69546;SHT31;56766;52.260;20.746;2022-09-27T09:01:13;14.40;82.40
69546;SHT31;56766;52.260;20.746;2022-09-27T09:03:53;14.55;81.62
69546;SHT31;56766;52.260;20.746;2022-09-27T09:06:43;14.68;81.48
69546;SHT31;56766;52.260;20.746;2022-09-27T09:09:37;14.79;81.22
69546;SHT31;56766;52.260;20.746;2022-09-27T09:21:38;15.33;80.71
69546;SHT31;56766;52.260;20.746;2022-09-27T09:24:40;15.41;79.90
69546;SHT31;56766;52.260;20.746;2022-09-27T09:33:22;15.53;79.00
69546;SHT31;56766;52.260;20.746;2022-09-27T09:39:15;15.71;78.40
69546;SHT31;56766;52.260;20.746;2022-09-27T09:42:06;15.78;77.90
69546;SHT31;56766;52.260;20.746;2022-09-27T09:44:48;15.85;77.62
69546;SHT31;56766;52.260;20.746;2022-09-27T09:47:37;15.93;77.53
69546;SHT31;56766;52.260;20.746;2022-09-27T09:50:20;16.07;77.22
69546;SHT31;56766;52.260;20.746;2022-09-27T09:53:17;16.12;76.77
69546;SHT31;56766;52.260;20.746;2022-09-27T09:56:01;16.15;76.82
69546;SHT31;56766;52.260;20.746;2022-09-27T10:01:40;16.28;76.16
69546;SHT31;56766;52.260;20.746;2022-09-27T10:04:35;16.32;75.96
69546;SHT31;56766;52.260;20.746;2022-09-27T10:07:01;16.32;76.10
69546;SHT31;56766;52.260;20.746;2022-09-27T10:09:28;16.26;76.13
69546;SHT31;56766;52.260;20.746;2022-09-27T10:11:55;16.24;76.12
69546;SHT31;56766;52.260;20.746;2022-09-27T10:14:22;16.18;75.83
69546;SHT31;56766;52.260;20.746;2022-09-27T10:16:59;16.09;75.54
69546;SHT31;56766;52.260;20.746;2022-09-27T10:19:33;15.97;75.91
69546;SHT31;56766;52.260;20.746;2022-09-27T10:22:30;15.92;76.45
69546;SHT31;56766;52.260;20.746;2022-09-27T10:25:05;15.80;76.30
69546;SHT31;56766;52.260;20.746;2022-09-27T10:27:46;15.73;76.54
69546;SHT31;56766;52.260;20.746;2022-09-27T10:32:55;15.67;76.87
69546;SHT31;56766;52.260;20.746;2022-09-27T10:40:44;15.63;77.05
69546;SHT31;56766;52.260;20.746;2022-09-27T10:43:32;15.52;76.97
69546;SHT31;56766;52.260;20.746;2022-09-27T10:46:27;15.41;77.26
69546;SHT31;56766;52.260;20.746;2022-09-27T10:52:21;15.33;77.79
69546;SHT31;56766;52.260;20.746;2022-09-27T10:57:22;15.38;77.93
69546;SHT31;56766;52.260;20.746;2022-09-27T11:02:59;15.45;77.94
69546;SHT31;56766;52.260;20.746;2022-09-27T11:05:46;15.44;77.96
69546;SHT31;56766;52.260;20.746;2022-09-27T11:08:31;15.44;78.06
69546;SHT31;56766;52.260;20.746;2022-09-27T11:11:26;15.41;77.99
69546;SHT31;56766;52.260;20.746;2022-09-27T11:20:15;15.32;78.25
69546;SHT31;56766;52.260;20.746;2022-09-27T11:26:23;15.24;78.15
69546;SHT31;56766;52.260;20.746;2022-09-27T11:32:35;15.43;77.94
69546;SHT31;56766;52.260;20.746;2022-09-27T11:35:10;15.52;77.59
69546;SHT31;56766;52.260;20.746;2022-09-27T11:58:34;17.01;73.87
69546;SHT31;56766;52.260;20.746;2022-09-27T12:01:45;17.17;73.33
69546;SHT31;56766;52.260;20.746;2022-09-27T12:10:04;17.60;72.32
69546;SHT31;56766;52.260;20.746;2022-09-27T12:12:40;17.61;71.66
69546;SHT31;56766;52.260;20.746;2022-09-27T12:15:19;17.63;71.37
69546;SHT31;56766;52.260;20.746;2022-09-27T12:18:08;17.59;70.86
69546;SHT31;56766;52.260;20.746;2022-09-27T12:20:52;17.52;70.89
69546;SHT31;56766;52.260;20.746;2022-09-27T12:23:38;17.53;70.50
69546;SHT31;56766;52.260;20.746;2022-09-27T12:29:43;17.72;70.67
69546;SHT31;56766;52.260;20.746;2022-09-27T12:32:18;17.81;70.70
69546;SHT31;56766;52.260;20.746;2022-09-27T12:38:10;17.80;70.09
69546;SHT31;56766;52.260;20.746;2022-09-27T12:40:49;17.80;69.11
69546;SHT31;56766;52.260;20.746;2022-09-27T12:43:23;17.73;69.00
69546;SHT31;56766;52.260;20.746;2022-09-27T12:50:24;17.64;69.61
69546;SHT31;56766;52.260;20.746;2022-09-27T12:52:52;17.71;69.67
69546;SHT31;56766;52.260;20.746;2022-09-27T12:58:31;17.70;69.21
69546;SHT31;56766;52.260;20.746;2022-09-27T13:01:49;17.73;68.82
69546;SHT31;56766;52.260;20.746;2022-09-27T13:07:45;17.93;68.83
69546;SHT31;56766;52.260;20.746;2022-09-27T13:10:39;17.91;68.61
69546;SHT31;56766;52.260;20.746;2022-09-27T13:13:15;17.83;68.71
69546;SHT31;56766;52.260;20.746;2022-09-27T13:15:48;17.90;69.12
69546;SHT31;56766;52.260;20.746;2022-09-27T13:32:34;17.86;66.97
69546;SHT31;56766;52.260;20.746;2022-09-27T13:35:24;17.71;67.86
69546;SHT31;56766;52.260;20.746;2022-09-27T13:37:53;17.60;67.83
69546;SHT31;56766;52.260;20.746;2022-09-27T13:40:34;17.50;67.90
69546;SHT31;56766;52.260;20.746;2022-09-27T13:45:58;17.29;68.31
69546;SHT31;56766;52.260;20.746;2022-09-27T13:48:42;17.29;68.39
69546;SHT31;56766;52.260;20.746;2022-09-27T13:51:27;17.24;68.44
69546;SHT31;56766;52.260;20.746;2022-09-27T13:54:38;17.22;68.66
69546;SHT31;56766;52.260;20.746;2022-09-27T14:00:37;17.15;68.90
69546;SHT31;56766;52.260;20.746;2022-09-27T14:05:45;17.09;68.64
69546;SHT31;56766;52.260;20.746;2022-09-27T14:08:42;17.03;68.58
69546;SHT31;56766;52.260;20.746;2022-09-27T14:11:29;16.98;68.82
69546;SHT31;56766;52.260;20.746;2022-09-27T14:14:03;16.92;68.67
69546;SHT31;56766;52.260;20.746;2022-09-27T14:16:35;16.81;68.87
69546;SHT31;56766;52.260;20.746;2022-09-27T14:19:15;16.69;68.83
69546;SHT31;56766;52.260;20.746;2022-09-27T14:21:46;16.62;69.09
69546;SHT31;56766;52.260;20.746;2022-09-27T14:24:28;16.57;69.34
69546;SHT31;56766;52.260;20.746;2022-09-27T14:27:16;16.56;69.51
69546;SHT31;56766;52.260;20.746;2022-09-27T14:29:52;16.48;69.47
69546;SHT31;56766;52.260;20.746;2022-09-27T14:32:28;16.41;69.84
69546;SHT31;56766;52.260;20.746;2022-09-27T14:35:13;16.36;70.06
69546;SHT31;56766;52.260;20.746;2022-09-27T14:38:05;16.32;70.24
69546;SHT31;56766;52.260;20.746;2022-09-27T14:40:40;16.30;70.38
69546;SHT31;56766;52.260;20.746;2022-09-27T14:43:29;16.32;70.56
69546;SHT31;56766;52.260;20.746;2022-09-27T14:46:01;16.33;70.62
69546;SHT31;56766;52.260;20.746;2022-09-27T14:48:34;16.33;70.78
69546;SHT31;56766;52.260;20.746;2022-09-27T14:53:51;16.31;70.80
69546;SHT31;56766;52.260;20.746;2022-09-27T14:56:37;16.27;70.93
69546;SHT31;56766;52.260;20.746;2022-09-27T14:59:16;16.22;71.16
69546;SHT31;56766;52.260;20.746;2022-09-27T15:02:17;16.20;71.24
69546;SHT31;56766;52.260;20.746;2022-09-27T15:04:49;16.16;71.32
69546;SHT31;56766;52.260;20.746;2022-09-27T15:07:18;16.13;71.53
69546;SHT31;56766;52.260;20.746;2022-09-27T15:09:49;16.12;71.52
69546;SHT31;56766;52.260;20.746;2022-09-27T15:12:23;16.06;71.56
69546;SHT31;56766;52.260;20.746;2022-09-27T15:14:53;16.01;71.76
69546;SHT31;56766;52.260;20.746;2022-09-27T15:17:23;16.00;71.89
69546;SHT31;56766;52.260;20.746;2022-09-27T15:20:17;16.01;71.96
69546;SHT31;56766;52.260;20.746;2022-09-27T15:22:50;16.01;71.86
69546;SHT31;56766;52.260;20.746;2022-09-27T15:27:53;15.95;72.17
69546;SHT31;56766;52.260;20.746;2022-09-27T15:30:36;15.91;72.25
69546;SHT31;56766;52.260;20.746;2022-09-27T15:33:20;15.87;72.30
69546;SHT31;56766;52.260;20.746;2022-09-27T15:36:02;15.84;72.35
69546;SHT31;56766;52.260;20.746;2022-09-27T15:38:40;15.81;72.26
69546;SHT31;56766;52.260;20.746;2022-09-27T15:41:18;15.73;72.29
69546;SHT31;56766;52.260;20.746;2022-09-27T15:43:51;15.66;72.40
69546;SHT31;56766;52.260;20.746;2022-09-27T15:49:17;15.51;72.65
69546;SHT31;56766;52.260;20.746;2022-09-27T15:51:51;15.43;72.92
69546;SHT31;56766;52.260;20.746;2022-09-27T15:54:27;15.33;73.09
69546;SHT31;56766;52.260;20.746;2022-09-27T15:57:00;15.27;73.15
69546;SHT31;56766;52.260;20.746;2022-09-27T15:59:32;15.23;73.29
69546;SHT31;56766;52.260;20.746;2022-09-27T16:02:05;15.19;73.41
69546;SHT31;56766;52.260;20.746;2022-09-27T16:04:37;15.15;73.63
69546;SHT31;56766;52.260;20.746;2022-09-27T16:07:05;15.09;73.77
69546;SHT31;56766;52.260;20.746;2022-09-27T16:09:34;15.02;73.95
69546;SHT31;56766;52.260;20.746;2022-09-27T16:12:01;14.95;74.12
69546;SHT31;56766;52.260;20.746;2022-09-27T16:14:28;14.90;74.27
69546;SHT31;56766;52.260;20.746;2022-09-27T16:16:56;14.85;74.44
69546;SHT31;56766;52.260;20.746;2022-09-27T16:19:25;14.77;74.66
69546;SHT31;56766;52.260;20.746;2022-09-27T16:21:52;14.70;74.82
69546;SHT31;56766;52.260;20.746;2022-09-27T16:24:18;14.63;75.01
69546;SHT31;56766;52.260;20.746;2022-09-27T16:26:45;14.55;75.22
69546;SHT31;56766;52.260;20.746;2022-09-27T16:29:14;14.48;75.45
69546;SHT31;56766;52.260;20.746;2022-09-27T16:31:42;14.41;75.77
69546;SHT31;56766;52.260;20.746;2022-09-27T16:34:10;14.35;75.97
69546;SHT31;56766;52.260;20.746;2022-09-27T16:36:38;14.33;76.06
69546;SHT31;56766;52.260;20.746;2022-09-27T16:39:08;14.29;76.27
69546;SHT31;56766;52.260;20.746;2022-09-27T16:41:39;14.27;76.46
69546;SHT31;56766;52.260;20.746;2022-09-27T16:44:12;14.26;76.55
69546;SHT31;56766;52.260;20.746;2022-09-27T16:46:43;14.27;76.60
69546;SHT31;56766;52.260;20.746;2022-09-27T16:49:13;14.26;76.69
69546;SHT31;56766;52.260;20.746;2022-09-27T16:51:58;14.26;76.82
69546;SHT31;56766;52.260;20.746;2022-09-27T16:54:27;14.26;76.81
69546;SHT31;56766;52.260;20.746;2022-09-27T16:56:56;14.25;76.84
69546;SHT31;56766;52.260;20.746;2022-09-27T16:59:24;14.24;76.97
69546;SHT31;56766;52.260;20.746;2022-09-27T17:01:51;14.21;77.02
69546;SHT31;56766;52.260;20.746;2022-09-27T17:04:23;14.16;77.03
69546;SHT31;56766;52.260;20.746;2022-09-27T17:06:51;14.10;77.16
69546;SHT31;56766;52.260;20.746;2022-09-27T17:09:19;14.01;77.20
69546;SHT31;56766;52.260;20.746;2022-09-27T17:11:47;13.92;77.36
69546;SHT31;56766;52.260;20.746;2022-09-27T17:14:14;13.83;77.53
69546;SHT31;56766;52.260;20.746;2022-09-27T17:16:43;13.74;77.66
69546;SHT31;56766;52.260;20.746;2022-09-27T17:19:13;13.65;77.75
69546;SHT31;56766;52.260;20.746;2022-09-27T17:21:41;13.56;77.81
69546;SHT31;56766;52.260;20.746;2022-09-27T17:24:09;13.45;78.04
69546;SHT31;56766;52.260;20.746;2022-09-27T17:26:36;13.35;78.41
69546;SHT31;56766;52.260;20.746;2022-09-27T17:29:03;13.26;78.62
69546;SHT31;56766;52.260;20.746;2022-09-27T17:31:31;13.22;78.71
69546;SHT31;56766;52.260;20.746;2022-09-27T17:33:59;13.16;78.80
69546;SHT31;56766;52.260;20.746;2022-09-27T17:36:29;13.12;78.80
69546;SHT31;56766;52.260;20.746;2022-09-27T17:39:00;13.05;78.88
69546;SHT31;56766;52.260;20.746;2022-09-27T17:41:30;12.99;79.00
69546;SHT31;56766;52.260;20.746;2022-09-27T17:44:00;12.93;79.16
69546;SHT31;56766;52.260;20.746;2022-09-27T17:46:30;12.86;79.27
69546;SHT31;56766;52.260;20.746;2022-09-27T17:49:01;12.80;79.38
69546;SHT31;56766;52.260;20.746;2022-09-27T17:51:50;12.75;79.58
69546;SHT31;56766;52.260;20.746;2022-09-27T17:54:21;12.69;79.66
69546;SHT31;56766;52.260;20.746;2022-09-27T17:56:50;12.64;79.78
69546;SHT31;56766;52.260;20.746;2022-09-27T17:59:17;12.55;80.06
69546;SHT31;56766;52.260;20.746;2022-09-27T18:01:46;12.52;80.16
69546;SHT31;56766;52.260;20.746;2022-09-27T18:04:15;12.49;80.24
69546;SHT31;56766;52.260;20.746;2022-09-27T18:06:46;12.46;80.21
69546;SHT31;56766;52.260;20.746;2022-09-27T18:09:14;12.45;80.36
69546;SHT31;56766;52.260;20.746;2022-09-27T18:11:42;12.43;80.40
69546;SHT31;56766;52.260;20.746;2022-09-27T18:14:11;12.42;80.36
69546;SHT31;56766;52.260;20.746;2022-09-27T18:16:40;12.38;80.48
69546;SHT31;56766;52.260;20.746;2022-09-27T18:19:12;12.37;80.58
69546;SHT31;56766;52.260;20.746;2022-09-27T18:21:41;12.36;80.65
69546;SHT31;56766;52.260;20.746;2022-09-27T18:24:08;12.37;80.91
69546;SHT31;56766;52.260;20.746;2022-09-27T18:26:36;12.36;80.86
69546;SHT31;56766;52.260;20.746;2022-09-27T18:29:08;12.36;81.22
69546;SHT31;56766;52.260;20.746;2022-09-27T18:31:37;12.38;81.29
69546;SHT31;56766;52.260;20.746;2022-09-27T18:34:08;12.42;81.16
69546;SHT31;56766;52.260;20.746;2022-09-27T18:36:35;12.46;81.20
69546;SHT31;56766;52.260;20.746;2022-09-27T18:39:04;12.46;81.30
69546;SHT31;56766;52.260;20.746;2022-09-27T18:41:34;12.45;81.37
69546;SHT31;56766;52.260;20.746;2022-09-27T18:44:04;12.46;81.44
69546;SHT31;56766;52.260;20.746;2022-09-27T18:46:34;12.48;81.41
69546;SHT31;56766;52.260;20.746;2022-09-27T18:49:04;12.53;81.39
69546;SHT31;56766;52.260;20.746;2022-09-27T18:51:33;12.60;81.35
69546;SHT31;56766;52.260;20.746;2022-09-27T18:54:05;12.65;81.16